createdAt,value
2019-04-11T00:03:39.644Z,94756.77
2019-04-11T00:08:41.907Z,94757.84
2019-04-11T00:13:43.174Z,94754.40
2019-04-11T00:18:44.934Z,94753.19
2019-04-11T00:23:46.117Z,94762.71
2019-04-11T00:28:47.957Z,94762.26
2019-04-11T00:33:49.393Z,94758.34
2019-04-11T00:38:50.696Z,94760.94
2019-04-11T00:43:52.765Z,94762.16
2019-04-11T00:48:54.475Z,94762.27
2019-04-11T00:53:55.440Z,94765.58
2019-04-11T00:58:56.741Z,94770.02
2019-04-11T01:03:59.109Z,94766.02
2019-04-11T01:09:00.013Z,94769.23
2019-04-11T01:14:01.572Z,94770.27
2019-04-11T01:19:02.622Z,94776.95
2019-04-11T01:24:03.792Z,94790.75
2019-04-11T01:29:04.999Z,94795.48
2019-04-11T01:34:06.496Z,94796.83
2019-04-11T01:39:13.816Z,94801.61
2019-04-11T01:44:15.139Z,94807.34
2019-04-11T01:49:17.318Z,94804.80
2019-04-11T01:54:19.549Z,94811.89
2019-04-11T01:59:19.989Z,94811.73
2019-04-11T02:04:23.774Z,94816.83
2019-04-11T02:09:24.671Z,94817.98
2019-04-11T02:14:25.984Z,94824.75
2019-04-11T02:19:28.102Z,94825.38
2019-04-11T02:24:36.611Z,94830.70
2019-04-11T02:29:37.916Z,94835.94
2019-04-11T02:34:40.287Z,94840.73
2019-04-11T02:39:42.711Z,94840.41
2019-04-11T02:44:59.590Z,94842.98
2019-04-11T02:49:45.657Z,94849.84
2019-04-11T02:54:47.386Z,94846.66
2019-04-11T02:59:49.041Z,94855.77
2019-04-11T03:04:50.968Z,94855.34
2019-04-11T03:09:51.080Z,94858.92
2019-04-11T03:15:09.317Z,94851.37
2019-04-11T03:20:08.924Z,94865.60
2019-04-11T03:24:55.660Z,94861.98
2019-04-11T03:29:58.098Z,94864.69
2019-04-11T03:35:51.011Z,94860.59
2019-04-11T03:40:23.809Z,94869.78
2019-04-11T03:45:20.994Z,94870.11
2019-04-11T03:50:08.531Z,94877.03
2019-04-11T03:55:06.737Z,94876.98
2019-04-11T04:00:06.327Z,94881.52
2019-04-11T04:05:08.875Z,94885.78
2019-04-11T04:10:12.615Z,94893.58
2019-04-11T04:15:32.562Z,94898.77
2019-04-11T04:25:49.349Z,94909.39
2019-04-11T04:30:51.670Z,94901.34
2019-04-11T04:35:52.358Z,94910.96
2019-04-11T04:41:07.334Z,94922.45
2019-04-11T04:46:13.549Z,94926.95
2019-04-11T04:51:01.646Z,94932.27
2019-04-11T04:56:00.289Z,94934.95
2019-04-11T05:01:01.387Z,94930.84
2019-04-11T05:06:03.369Z,94930.53
2019-04-11T05:11:04.503Z,94936.36
2019-04-11T05:16:16.414Z,94938.30
2019-04-11T05:21:06.065Z,94947.10
2019-04-11T05:26:07.455Z,94937.09
2019-04-11T05:31:10.095Z,94939.70
2019-04-11T05:36:10.245Z,94948.33
2019-04-11T05:41:13.498Z,94946.64
2019-04-11T05:46:28.587Z,94954.16
2019-04-11T05:51:18.565Z,94952.46
2019-04-11T05:56:16.856Z,94955.63
2019-04-11T06:01:20.283Z,94959.28
2019-04-11T06:06:24.686Z,94952.47
2019-04-11T06:11:34.825Z,94956.09
2019-04-11T06:16:44.887Z,94963.16
2019-04-11T06:21:44.284Z,94965.20
2019-04-11T06:26:49.131Z,94971.25
2019-04-11T06:31:52.701Z,94964.64
2019-04-11T06:36:58.109Z,94972.70
2019-04-11T06:42:04.205Z,94970.56
2019-04-11T06:47:18.808Z,94976.64
2019-04-11T06:52:24.413Z,94985.42
2019-04-11T06:57:26.696Z,94982.52
2019-04-11T07:02:28.052Z,94986.77
2019-04-11T07:07:34.325Z,94991.38
2019-04-11T07:12:38.630Z,94991.83
2019-04-11T07:17:48.111Z,94989.91
2019-04-11T07:22:57.521Z,94992.77
2019-04-11T07:28:05.939Z,95000.89
2019-04-11T07:33:16.517Z,94999.18
2019-04-11T07:38:23.449Z,95009.16
2019-04-11T07:43:24.993Z,95009.81
2019-04-11T07:48:27.231Z,95015.63
2019-04-11T07:53:28.559Z,95025.14
2019-04-11T07:58:31.370Z,95029.91
2019-04-11T08:03:40.021Z,95031.16
2019-04-11T08:08:51.395Z,95036.31
2019-04-11T08:14:08.403Z,95037.02
2019-04-11T08:24:50.972Z,95031.05
2019-04-11T08:29:52.010Z,95038.31
2019-04-11T08:34:55.843Z,95041.59
2019-04-11T08:39:59.678Z,95043.17
2019-04-11T08:45:02.352Z,95039.11
2019-04-11T08:50:07.499Z,95044.55
2019-04-11T08:55:10.343Z,95046.80
2019-04-11T09:00:37.987Z,95049.09
2019-04-11T09:05:53.312Z,95051.50
2019-04-11T09:10:53.610Z,95050.59
2019-04-11T09:16:02.133Z,95056.08
2019-04-11T09:21:11.866Z,95060.63
2019-04-11T09:31:45.770Z,95066.52
2019-04-11T09:37:03.170Z,95067.70
2019-04-11T09:47:40.567Z,95067.77
2019-04-11T09:52:42.869Z,95066.73
2019-04-11T09:57:48.404Z,95075.23
2019-04-11T10:02:53.078Z,95068.28
2019-04-11T10:08:02.277Z,95070.84
2019-04-11T10:13:25.022Z,95076.03
2019-04-11T10:18:37.278Z,95074.20
2019-04-11T10:23:34.926Z,95074.84
2019-04-11T10:28:49.665Z,95075.18
2019-04-11T10:34:04.877Z,95079.78
2019-04-11T10:39:29.298Z,95076.33
2019-04-11T10:44:40.362Z,95072.54
2019-04-11T10:49:46.401Z,95081.05
2019-04-11T10:54:57.573Z,95086.89
2019-04-11T11:05:47.161Z,95085.59
2019-04-11T11:10:47.970Z,95084.94
2019-04-11T11:15:49.802Z,95082.16
2019-04-11T11:20:55.145Z,95082.18
2019-04-11T11:31:32.034Z,95088.15
2019-04-11T11:36:39.584Z,95078.06
2019-04-11T11:41:48.869Z,95085.13
2019-04-11T11:47:06.850Z,95088.91
2019-04-11T11:52:22.852Z,95088.92
2019-04-11T11:57:24.242Z,95084.98
2019-04-11T12:02:26.380Z,95078.73
2019-04-11T12:07:28.559Z,95079.79
2019-04-11T12:12:42.763Z,95078.59
2019-04-11T12:17:50.348Z,95084.43
2019-04-11T12:22:53.691Z,95091.61
2019-04-11T12:33:35.266Z,95086.16
2019-04-11T12:38:54.663Z,95089.69
2019-04-11T12:43:59.021Z,95088.11
2019-04-11T12:54:32.737Z,95082.19
2019-04-11T12:59:36.618Z,95077.85
2019-04-11T13:04:38.010Z,95089.19
2019-04-11T13:09:43.850Z,95081.50
2019-04-11T13:20:19.890Z,95083.41
2019-04-11T13:30:57.804Z,95078.50
2019-04-11T13:36:02.409Z,95076.52
2019-04-11T13:41:20.297Z,95085.05
2019-04-11T13:51:48.495Z,95079.72
2019-04-11T13:56:54.803Z,95081.95
2019-04-11T14:07:33.977Z,95085.66
2019-04-11T14:12:44.087Z,95091.81
2019-04-11T14:17:48.404Z,95085.03
2019-04-11T14:22:52.582Z,95089.62
2019-04-11T14:27:59.940Z,95084.59
2019-04-11T14:33:01.393Z,95090.53
2019-04-11T14:38:04.639Z,95091.19
2019-04-11T14:43:09.893Z,95093.39
2019-04-11T14:54:04.163Z,95091.91
2019-04-11T14:59:10.571Z,95105.50
2019-04-11T15:04:18.040Z,95099.91
2019-04-11T15:09:22.745Z,95106.49
2019-04-11T15:14:27.964Z,95107.95
2019-04-11T15:19:29.296Z,95106.66
2019-04-11T15:24:31.387Z,95105.83
2019-04-11T15:29:33.578Z,95109.17
2019-04-11T15:34:37.938Z,95114.44
2019-04-11T15:39:45.538Z,95112.83
2019-04-11T15:44:53.120Z,95114.94
2019-04-11T15:50:08.649Z,95120.14
2019-04-11T15:55:16.242Z,95115.86
2019-04-11T16:00:20.624Z,95129.95
2019-04-11T16:11:14.317Z,95134.06
2019-04-11T16:16:30.587Z,95129.67
2019-04-11T16:21:35.681Z,95134.88
2019-04-11T16:26:43.316Z,95139.77
2019-04-11T16:31:45.414Z,95140.87
2019-04-11T16:36:50.433Z,95144.18
2019-04-11T16:42:02.744Z,95145.64
2019-04-11T16:47:08.282Z,95146.48
2019-04-11T16:52:15.904Z,95150.23
2019-04-11T16:57:24.664Z,95145.36
2019-04-11T17:02:28.905Z,95148.52
2019-04-11T17:12:59.912Z,95158.00
2019-04-11T17:18:03.159Z,95162.16
2019-04-11T17:23:04.340Z,95162.42
2019-04-11T17:28:05.738Z,95165.83
2019-04-11T17:33:07.947Z,95161.83
2019-04-11T17:38:15.688Z,95167.47
2019-04-11T17:43:17.080Z,95174.58
2019-04-11T17:48:19.528Z,95171.83
2019-04-11T17:53:26.486Z,95179.23
2019-04-11T17:58:27.915Z,95178.05
2019-04-11T18:03:29.476Z,95181.69
2019-04-11T18:08:30.835Z,95189.05
2019-04-11T18:13:32.204Z,95195.36
2019-04-11T18:18:35.161Z,95198.64
2019-04-11T18:23:35.994Z,95208.38
2019-04-11T18:28:36.290Z,95209.93
2019-04-11T18:33:40.586Z,95220.14
2019-04-11T18:38:42.074Z,95227.81
2019-04-11T18:43:47.091Z,95222.84
2019-04-11T18:48:48.673Z,95241.56
2019-04-11T18:53:50.045Z,95243.52
2019-04-11T18:58:51.461Z,95252.05
2019-04-11T19:03:53.839Z,95253.27
2019-04-11T19:09:03.758Z,95257.12
2019-04-11T19:14:05.271Z,95261.73
2019-04-11T19:19:07.771Z,95270.55
2019-04-11T19:24:13.136Z,95273.55
2019-04-11T19:29:18.944Z,95280.10
2019-04-11T19:34:20.355Z,95274.32
2019-04-11T19:39:25.876Z,95276.68
2019-04-11T19:44:28.060Z,95279.27
2019-04-11T19:49:29.663Z,95279.55
2019-04-11T19:54:32.784Z,95274.80
2019-04-11T19:59:32.204Z,95268.52
2019-04-11T20:04:36.540Z,95269.07
2019-04-11T20:09:47.426Z,95267.29
2019-04-11T20:14:49.651Z,95271.17
2019-04-11T20:20:01.146Z,95272.61
2019-04-11T20:24:57.076Z,95275.02
2019-04-11T20:30:03.476Z,95280.52
2019-04-11T20:35:09.421Z,95281.22
2019-04-11T20:40:07.681Z,95286.24
2019-04-11T20:45:12.020Z,95277.80
2019-04-11T20:50:19.380Z,95283.03
2019-04-11T20:55:26.466Z,95285.71
2019-04-11T21:00:27.852Z,95285.77
2019-04-11T21:05:30.922Z,95285.58
2019-04-11T21:10:31.889Z,95287.05
2019-04-11T21:15:33.850Z,95283.31
2019-04-11T21:20:35.215Z,95284.38
2019-04-11T21:25:37.203Z,95285.05
2019-04-11T21:30:38.578Z,95294.30
2019-04-11T21:35:39.920Z,95295.06
2019-04-11T21:40:41.273Z,95295.67
2019-04-11T21:45:42.661Z,95293.86
2019-04-11T21:50:44.001Z,95291.27
2019-04-11T21:55:47.848Z,95288.09
2019-04-11T22:00:46.753Z,95283.70
2019-04-11T22:05:59.601Z,95280.70
2019-04-11T22:10:57.834Z,95277.55
2019-04-11T22:15:59.881Z,95287.57
2019-04-11T22:21:01.211Z,95280.92
2019-04-11T22:26:02.623Z,95280.30
2019-04-11T22:31:03.962Z,95278.35
2019-04-11T22:36:05.328Z,95276.89
2019-04-11T22:41:06.773Z,95272.21
2019-04-11T22:46:12.010Z,95269.97
2019-04-11T22:51:11.276Z,95271.19
2019-04-11T22:56:12.397Z,95267.24
2019-04-11T23:01:14.001Z,95271.06
2019-04-11T23:06:14.880Z,95269.63
2019-04-11T23:11:15.898Z,95268.05
2019-04-11T23:16:17.237Z,95266.11
2019-04-11T23:21:18.673Z,95270.70
2019-04-11T23:26:20.869Z,95264.02
2019-04-11T23:31:22.240Z,95272.53
2019-04-11T23:36:23.615Z,95270.94
2019-04-11T23:41:25.014Z,95268.78
2019-04-11T23:46:26.441Z,95270.14
2019-04-11T23:51:27.837Z,95264.52
2019-04-11T23:56:30.580Z,95262.64
